sensor_id;sensor_type;location;lat;lon;timestamp;P1;durP1;ratioP1;P2;durP2;ratioP2
54853;SDS011;40747;49.480;8.658;2022-11-20T00:01:40;6.85;;;4.65;;
54853;SDS011;40747;49.480;8.658;2022-11-20T00:04:05;6.72;;;4.55;;
54853;SDS011;40747;49.480;8.658;2022-11-20T00:06:31;5.43;;;4.03;;
54853;SDS011;40747;49.480;8.658;2022-11-20T00:08:57;6.85;;;4.60;;
54853;SDS011;40747;49.480;8.658;2022-11-20T00:11:25;8.25;;;3.95;;
54853;SDS011;40747;49.480;8.658;2022-11-20T00:13:52;3.63;;;3.00;;
54853;SDS011;40747;49.480;8.658;2022-11-20T00:16:20;6.47;;;4.22;;
54853;SDS011;40747;49.480;8.658;2022-11-20T00:18:47;6.15;;;3.28;;
54853;SDS011;40747;49.480;8.658;2022-11-20T00:21:13;5.22;;;3.17;;
54853;SDS011;40747;49.480;8.658;2022-11-20T00:23:40;5.63;;;3.55;;
54853;SDS011;40747;49.480;8.658;2022-11-20T00:26:08;6.20;;;4.90;;
54853;SDS011;40747;49.480;8.658;2022-11-20T00:28:35;8.30;;;4.35;;
54853;SDS011;40747;49.480;8.658;2022-11-20T00:31:08;7.80;;;5.78;;
54853;SDS011;40747;49.480;8.658;2022-11-20T00:33:35;7.75;;;4.70;;
54853;SDS011;40747;49.480;8.658;2022-11-20T00:36:04;7.55;;;4.43;;
54853;SDS011;40747;49.480;8.658;2022-11-20T00:38:31;8.10;;;4.57;;
54853;SDS011;40747;49.480;8.658;2022-11-20T00:40:58;8.32;;;4.00;;
54853;SDS011;40747;49.480;8.658;2022-11-20T00:43:24;7.00;;;5.35;;
54853;SDS011;40747;49.480;8.658;2022-11-20T00:45:50;3.90;;;3.47;;
54853;SDS011;40747;49.480;8.658;2022-11-20T00:48:20;6.15;;;3.15;;
54853;SDS011;40747;49.480;8.658;2022-11-20T00:50:45;5.30;;;3.63;;
54853;SDS011;40747;49.480;8.658;2022-11-20T00:53:11;6.45;;;3.97;;
54853;SDS011;40747;49.480;8.658;2022-11-20T00:55:36;8.50;;;5.25;;
54853;SDS011;40747;49.480;8.658;2022-11-20T00:58:01;7.80;;;3.28;;
54853;SDS011;40747;49.480;8.658;2022-11-20T01:00:26;5.13;;;4.07;;
54853;SDS011;40747;49.480;8.658;2022-11-20T01:02:52;6.45;;;3.97;;
54853;SDS011;40747;49.480;8.658;2022-11-20T01:05:17;5.30;;;3.65;;
54853;SDS011;40747;49.480;8.658;2022-11-20T01:07:42;4.75;;;2.60;;
54853;SDS011;40747;49.480;8.658;2022-11-20T01:10:07;5.50;;;3.35;;
54853;SDS011;40747;49.480;8.658;2022-11-20T01:12:33;6.18;;;3.63;;
54853;SDS011;40747;49.480;8.658;2022-11-20T01:14:58;4.68;;;2.95;;
54853;SDS011;40747;49.480;8.658;2022-11-20T01:17:24;4.28;;;3.47;;
54853;SDS011;40747;49.480;8.658;2022-11-20T01:19:49;6.43;;;4.10;;
54853;SDS011;40747;49.480;8.658;2022-11-20T01:22:15;9.10;;;4.40;;
54853;SDS011;40747;49.480;8.658;2022-11-20T01:24:40;6.75;;;4.03;;
54853;SDS011;40747;49.480;8.658;2022-11-20T01:27:06;9.57;;;5.78;;
54853;SDS011;40747;49.480;8.658;2022-11-20T01:29:31;7.50;;;4.78;;
54853;SDS011;40747;49.480;8.658;2022-11-20T01:31:56;11.55;;;5.55;;
54853;SDS011;40747;49.480;8.658;2022-11-20T01:34:22;8.32;;;5.15;;
54853;SDS011;40747;49.480;8.658;2022-11-20T01:36:47;6.43;;;4.80;;
54853;SDS011;40747;49.480;8.658;2022-11-20T01:39:15;11.13;;;5.88;;
54853;SDS011;40747;49.480;8.658;2022-11-20T01:41:43;7.22;;;5.35;;
54853;SDS011;40747;49.480;8.658;2022-11-20T01:47:32;9.75;;;5.10;;
54853;SDS011;40747;49.480;8.658;2022-11-20T01:50:11;10.57;;;5.75;;
54853;SDS011;40747;49.480;8.658;2022-11-20T01:52:42;7.65;;;5.53;;
54853;SDS011;40747;49.480;8.658;2022-11-20T01:55:15;11.75;;;5.00;;
54853;SDS011;40747;49.480;8.658;2022-11-20T01:57:44;10.23;;;6.03;;
54853;SDS011;40747;49.480;8.658;2022-11-20T02:00:14;7.82;;;4.53;;
54853;SDS011;40747;49.480;8.658;2022-11-20T02:02:42;10.43;;;5.88;;
54853;SDS011;40747;49.480;8.658;2022-11-20T02:08:14;6.95;;;4.78;;
54853;SDS011;40747;49.480;8.658;2022-11-20T02:10:40;6.82;;;4.63;;
54853;SDS011;40747;49.480;8.658;2022-11-20T02:13:05;6.93;;;4.70;;
54853;SDS011;40747;49.480;8.658;2022-11-20T02:18:14;6.88;;;4.40;;
54853;SDS011;40747;49.480;8.658;2022-11-20T02:20:42;9.63;;;5.35;;
54853;SDS011;40747;49.480;8.658;2022-11-20T02:23:15;7.57;;;4.43;;
54853;SDS011;40747;49.480;8.658;2022-11-20T02:25:47;9.13;;;5.28;;
54853;SDS011;40747;49.480;8.658;2022-11-20T02:28:14;6.05;;;4.47;;
54853;SDS011;40747;49.480;8.658;2022-11-20T02:30:40;9.93;;;5.97;;
54853;SDS011;40747;49.480;8.658;2022-11-20T02:33:05;8.10;;;4.07;;
54853;SDS011;40747;49.480;8.658;2022-11-20T02:37:57;6.15;;;3.97;;
54853;SDS011;40747;49.480;8.658;2022-11-20T02:40:25;10.02;;;4.25;;
54853;SDS011;40747;49.480;8.658;2022-11-20T02:42:54;5.97;;;3.95;;
54853;SDS011;40747;49.480;8.658;2022-11-20T02:45:20;4.35;;;3.33;;
54853;SDS011;40747;49.480;8.658;2022-11-20T02:47:46;7.50;;;3.50;;
54853;SDS011;40747;49.480;8.658;2022-11-20T02:50:11;7.97;;;3.63;;
54853;SDS011;40747;49.480;8.658;2022-11-20T02:52:37;3.38;;;2.40;;
54853;SDS011;40747;49.480;8.658;2022-11-20T02:55:02;5.53;;;3.67;;
54853;SDS011;40747;49.480;8.658;2022-11-20T02:57:28;4.35;;;2.53;;
54853;SDS011;40747;49.480;8.658;2022-11-20T02:59:53;6.18;;;3.15;;
54853;SDS011;40747;49.480;8.658;2022-11-20T03:02:19;5.00;;;3.05;;
54853;SDS011;40747;49.480;8.658;2022-11-20T03:04:44;4.57;;;3.10;;
54853;SDS011;40747;49.480;8.658;2022-11-20T03:07:09;4.97;;;3.33;;
54853;SDS011;40747;49.480;8.658;2022-11-20T03:09:35;4.05;;;2.78;;
54853;SDS011;40747;49.480;8.658;2022-11-20T03:12:00;4.15;;;3.50;;
54853;SDS011;40747;49.480;8.658;2022-11-20T03:14:26;3.25;;;2.30;;
54853;SDS011;40747;49.480;8.658;2022-11-20T03:16:51;2.95;;;2.45;;
54853;SDS011;40747;49.480;8.658;2022-11-20T03:19:16;7.70;;;3.55;;
54853;SDS011;40747;49.480;8.658;2022-11-20T03:21:41;4.35;;;2.97;;
54853;SDS011;40747;49.480;8.658;2022-11-20T03:24:07;2.58;;;1.90;;
54853;SDS011;40747;49.480;8.658;2022-11-20T03:26:32;5.90;;;3.03;;
54853;SDS011;40747;49.480;8.658;2022-11-20T03:28:59;4.22;;;2.75;;
54853;SDS011;40747;49.480;8.658;2022-11-20T03:31:27;5.03;;;2.83;;
54853;SDS011;40747;49.480;8.658;2022-11-20T03:33:55;5.50;;;4.00;;
54853;SDS011;40747;49.480;8.658;2022-11-20T03:36:22;7.57;;;4.22;;
54853;SDS011;40747;49.480;8.658;2022-11-20T03:38:48;7.47;;;3.45;;
54853;SDS011;40747;49.480;8.658;2022-11-20T03:41:15;5.13;;;3.33;;
54853;SDS011;40747;49.480;8.658;2022-11-20T03:43:46;7.65;;;3.70;;
54853;SDS011;40747;49.480;8.658;2022-11-20T03:46:19;4.50;;;3.70;;
54853;SDS011;40747;49.480;8.658;2022-11-20T03:48:45;2.67;;;1.92;;
54853;SDS011;40747;49.480;8.658;2022-11-20T03:51:15;6.35;;;4.50;;
54853;SDS011;40747;49.480;8.658;2022-11-20T03:53:42;6.20;;;3.47;;
54853;SDS011;40747;49.480;8.658;2022-11-20T03:56:09;8.57;;;4.85;;
54853;SDS011;40747;49.480;8.658;2022-11-20T03:58:36;8.82;;;3.50;;
54853;SDS011;40747;49.480;8.658;2022-11-20T04:01:12;10.88;;;3.83;;
54853;SDS011;40747;49.480;8.658;2022-11-20T04:03:39;4.82;;;2.67;;
54853;SDS011;40747;49.480;8.658;2022-11-20T04:06:07;4.32;;;3.35;;
54853;SDS011;40747;49.480;8.658;2022-11-20T04:08:32;10.50;;;4.82;;
54853;SDS011;40747;49.480;8.658;2022-11-20T04:11:14;7.80;;;4.93;;
54853;SDS011;40747;49.480;8.658;2022-11-20T04:13:41;8.07;;;4.03;;
54853;SDS011;40747;49.480;8.658;2022-11-20T04:16:10;5.00;;;2.88;;
54853;SDS011;40747;49.480;8.658;2022-11-20T04:18:35;7.55;;;3.17;;
54853;SDS011;40747;49.480;8.658;2022-11-20T04:21:01;8.00;;;3.45;;
54853;SDS011;40747;49.480;8.658;2022-11-20T04:23:27;5.97;;;3.47;;
54853;SDS011;40747;49.480;8.658;2022-11-20T04:25:52;5.72;;;4.30;;
54853;SDS011;40747;49.480;8.658;2022-11-20T04:28:18;7.63;;;4.55;;
54853;SDS011;40747;49.480;8.658;2022-11-20T04:30:43;6.15;;;3.50;;
54853;SDS011;40747;49.480;8.658;2022-11-20T04:33:09;6.65;;;3.92;;
54853;SDS011;40747;49.480;8.658;2022-11-20T04:35:35;3.60;;;2.63;;
54853;SDS011;40747;49.480;8.658;2022-11-20T04:38:00;8.07;;;4.18;;
54853;SDS011;40747;49.480;8.658;2022-11-20T04:40:27;4.22;;;2.80;;
54853;SDS011;40747;49.480;8.658;2022-11-20T04:42:53;7.85;;;3.60;;
54853;SDS011;40747;49.480;8.658;2022-11-20T04:45:19;6.03;;;3.38;;
54853;SDS011;40747;49.480;8.658;2022-11-20T04:47:45;7.72;;;4.05;;
54853;SDS011;40747;49.480;8.658;2022-11-20T04:50:10;7.18;;;4.05;;
54853;SDS011;40747;49.480;8.658;2022-11-20T04:52:35;7.05;;;3.90;;
54853;SDS011;40747;49.480;8.658;2022-11-20T04:55:01;9.13;;;3.60;;
54853;SDS011;40747;49.480;8.658;2022-11-20T04:57:26;6.78;;;2.97;;
54853;SDS011;40747;49.480;8.658;2022-11-20T04:59:51;9.15;;;4.05;;
54853;SDS011;40747;49.480;8.658;2022-11-20T05:02:17;4.20;;;3.00;;
54853;SDS011;40747;49.480;8.658;2022-11-20T05:04:42;6.88;;;2.85;;
54853;SDS011;40747;49.480;8.658;2022-11-20T05:07:07;10.82;;;4.72;;
54853;SDS011;40747;49.480;8.658;2022-11-20T05:09:33;9.80;;;4.38;;
54853;SDS011;40747;49.480;8.658;2022-11-20T05:11:58;7.65;;;4.13;;
54853;SDS011;40747;49.480;8.658;2022-11-20T05:14:23;6.38;;;3.58;;
54853;SDS011;40747;49.480;8.658;2022-11-20T05:16:49;4.82;;;3.38;;
54853;SDS011;40747;49.480;8.658;2022-11-20T05:19:14;9.00;;;3.47;;
54853;SDS011;40747;49.480;8.658;2022-11-20T05:21:39;7.00;;;4.20;;
54853;SDS011;40747;49.480;8.658;2022-11-20T05:24:05;10.55;;;3.65;;
54853;SDS011;40747;49.480;8.658;2022-11-20T05:26:31;7.68;;;4.63;;
54853;SDS011;40747;49.480;8.658;2022-11-20T05:28:57;10.80;;;5.30;;
54853;SDS011;40747;49.480;8.658;2022-11-20T05:31:23;12.07;;;3.05;;
54853;SDS011;40747;49.480;8.658;2022-11-20T05:33:49;5.72;;;3.67;;
54853;SDS011;40747;49.480;8.658;2022-11-20T05:36:15;6.85;;;3.80;;
54853;SDS011;40747;49.480;8.658;2022-11-20T05:38:41;6.20;;;3.85;;
54853;SDS011;40747;49.480;8.658;2022-11-20T05:41:08;5.50;;;3.97;;
54853;SDS011;40747;49.480;8.658;2022-11-20T05:43:42;6.75;;;3.90;;
54853;SDS011;40747;49.480;8.658;2022-11-20T05:46:09;5.75;;;4.32;;
54853;SDS011;40747;49.480;8.658;2022-11-20T05:48:35;8.40;;;4.70;;
54853;SDS011;40747;49.480;8.658;2022-11-20T05:51:02;5.18;;;3.65;;
54853;SDS011;40747;49.480;8.658;2022-11-20T05:53:29;6.65;;;3.38;;
54853;SDS011;40747;49.480;8.658;2022-11-20T05:55:59;4.85;;;3.83;;
54853;SDS011;40747;49.480;8.658;2022-11-20T06:00:54;9.43;;;4.32;;
54853;SDS011;40747;49.480;8.658;2022-11-20T06:03:19;11.13;;;5.22;;
54853;SDS011;40747;49.480;8.658;2022-11-20T06:05:45;8.75;;;4.32;;
54853;SDS011;40747;49.480;8.658;2022-11-20T06:08:11;8.02;;;4.15;;
54853;SDS011;40747;49.480;8.658;2022-11-20T06:10:36;8.00;;;4.63;;
54853;SDS011;40747;49.480;8.658;2022-11-20T06:13:01;9.77;;;4.72;;
54853;SDS011;40747;49.480;8.658;2022-11-20T06:15:26;10.13;;;4.50;;
54853;SDS011;40747;49.480;8.658;2022-11-20T06:17:55;7.82;;;4.72;;
54853;SDS011;40747;49.480;8.658;2022-11-20T06:20:21;6.75;;;4.22;;
54853;SDS011;40747;49.480;8.658;2022-11-20T06:22:46;12.30;;;5.97;;
54853;SDS011;40747;49.480;8.658;2022-11-20T06:25:12;6.68;;;4.30;;
54853;SDS011;40747;49.480;8.658;2022-11-20T06:27:37;6.07;;;4.43;;
54853;SDS011;40747;49.480;8.658;2022-11-20T06:30:03;9.18;;;4.85;;
54853;SDS011;40747;49.480;8.658;2022-11-20T06:32:29;7.57;;;4.40;;
54853;SDS011;40747;49.480;8.658;2022-11-20T06:37:21;13.90;;;5.72;;
54853;SDS011;40747;49.480;8.658;2022-11-20T06:39:47;9.05;;;5.47;;
54853;SDS011;40747;49.480;8.658;2022-11-20T06:42:12;8.07;;;4.80;;
54853;SDS011;40747;49.480;8.658;2022-11-20T06:44:37;9.65;;;5.03;;
54853;SDS011;40747;49.480;8.658;2022-11-20T06:47:03;7.22;;;4.57;;
54853;SDS011;40747;49.480;8.658;2022-11-20T06:49:28;6.13;;;3.97;;
54853;SDS011;40747;49.480;8.658;2022-11-20T06:51:53;9.35;;;5.63;;
54853;SDS011;40747;49.480;8.658;2022-11-20T06:54:19;8.43;;;6.13;;
54853;SDS011;40747;49.480;8.658;2022-11-20T06:56:47;10.13;;;5.05;;
54853;SDS011;40747;49.480;8.658;2022-11-20T06:59:13;8.60;;;4.65;;
54853;SDS011;40747;49.480;8.658;2022-11-20T07:01:38;9.77;;;6.00;;
54853;SDS011;40747;49.480;8.658;2022-11-20T07:04:04;8.05;;;4.78;;
54853;SDS011;40747;49.480;8.658;2022-11-20T07:06:31;5.70;;;4.45;;
54853;SDS011;40747;49.480;8.658;2022-11-20T07:08:56;9.68;;;5.63;;
54853;SDS011;40747;49.480;8.658;2022-11-20T07:11:22;14.90;;;6.38;;
54853;SDS011;40747;49.480;8.658;2022-11-20T07:13:47;10.57;;;6.00;;
54853;SDS011;40747;49.480;8.658;2022-11-20T07:16:12;8.15;;;5.47;;
54853;SDS011;40747;49.480;8.658;2022-11-20T07:18:37;8.68;;;5.45;;
54853;SDS011;40747;49.480;8.658;2022-11-20T07:21:04;10.77;;;6.32;;
54853;SDS011;40747;49.480;8.658;2022-11-20T07:23:34;11.18;;;5.35;;
54853;SDS011;40747;49.480;8.658;2022-11-20T07:26:03;10.63;;;5.90;;
54853;SDS011;40747;49.480;8.658;2022-11-20T07:28:30;10.90;;;4.75;;
54853;SDS011;40747;49.480;8.658;2022-11-20T07:30:55;5.65;;;4.15;;
54853;SDS011;40747;49.480;8.658;2022-11-20T07:33:21;7.63;;;4.78;;
54853;SDS011;40747;49.480;8.658;2022-11-20T07:35:46;10.73;;;6.70;;
54853;SDS011;40747;49.480;8.658;2022-11-20T07:38:12;9.45;;;5.75;;
54853;SDS011;40747;49.480;8.658;2022-11-20T07:40:37;8.05;;;5.05;;
54853;SDS011;40747;49.480;8.658;2022-11-20T07:43:04;9.32;;;5.03;;
54853;SDS011;40747;49.480;8.658;2022-11-20T07:45:29;9.13;;;5.05;;
54853;SDS011;40747;49.480;8.658;2022-11-20T07:47:54;11.75;;;5.90;;
54853;SDS011;40747;49.480;8.658;2022-11-20T07:50:20;15.35;;;8.15;;
54853;SDS011;40747;49.480;8.658;2022-11-20T07:52:45;14.52;;;5.30;;
54853;SDS011;40747;49.480;8.658;2022-11-20T07:55:11;9.02;;;4.47;;
54853;SDS011;40747;49.480;8.658;2022-11-20T07:57:37;10.50;;;5.32;;
54853;SDS011;40747;49.480;8.658;2022-11-20T08:00:03;11.07;;;6.95;;
54853;SDS011;40747;49.480;8.658;2022-11-20T08:02:29;10.55;;;5.95;;
54853;SDS011;40747;49.480;8.658;2022-11-20T08:04:55;12.27;;;4.70;;
54853;SDS011;40747;49.480;8.658;2022-11-20T08:07:20;10.60;;;6.80;;
54853;SDS011;40747;49.480;8.658;2022-11-20T08:09:45;8.85;;;4.95;;
54853;SDS011;40747;49.480;8.658;2022-11-20T08:12:20;8.20;;;4.70;;
54853;SDS011;40747;49.480;8.658;2022-11-20T08:17:30;6.45;;;4.60;;
54853;SDS011;40747;49.480;8.658;2022-11-20T08:19:55;7.70;;;4.95;;
54853;SDS011;40747;49.480;8.658;2022-11-20T08:22:21;8.32;;;5.80;;
54853;SDS011;40747;49.480;8.658;2022-11-20T08:24:46;9.07;;;4.60;;
54853;SDS011;40747;49.480;8.658;2022-11-20T08:27:11;8.20;;;4.53;;
54853;SDS011;40747;49.480;8.658;2022-11-20T08:29:37;6.88;;;4.07;;
54853;SDS011;40747;49.480;8.658;2022-11-20T08:32:02;8.43;;;4.45;;
54853;SDS011;40747;49.480;8.658;2022-11-20T08:34:27;8.23;;;5.07;;
54853;SDS011;40747;49.480;8.658;2022-11-20T08:36:53;9.70;;;5.50;;
54853;SDS011;40747;49.480;8.658;2022-11-20T08:39:18;10.68;;;5.30;;
54853;SDS011;40747;49.480;8.658;2022-11-20T08:41:43;6.00;;;4.55;;
54853;SDS011;40747;49.480;8.658;2022-11-20T08:44:09;4.22;;;3.60;;
54853;SDS011;40747;49.480;8.658;2022-11-20T08:46:38;8.77;;;5.40;;
54853;SDS011;40747;49.480;8.658;2022-11-20T08:49:06;17.27;;;5.00;;
54853;SDS011;40747;49.480;8.658;2022-11-20T08:51:34;7.20;;;4.38;;
54853;SDS011;40747;49.480;8.658;2022-11-20T08:54:00;7.47;;;3.20;;
54853;SDS011;40747;49.480;8.658;2022-11-20T08:56:26;8.02;;;5.20;;
54853;SDS011;40747;49.480;8.658;2022-11-20T08:58:51;13.70;;;6.95;;
54853;SDS011;40747;49.480;8.658;2022-11-20T09:01:20;14.85;;;7.75;;
54853;SDS011;40747;49.480;8.658;2022-11-20T09:03:46;18.77;;;9.52;;
54853;SDS011;40747;49.480;8.658;2022-11-20T09:06:12;22.13;;;8.70;;
54853;SDS011;40747;49.480;8.658;2022-11-20T09:08:38;10.18;;;6.55;;
54853;SDS011;40747;49.480;8.658;2022-11-20T09:11:04;9.80;;;6.20;;
54853;SDS011;40747;49.480;8.658;2022-11-20T09:13:30;13.68;;;6.53;;
54853;SDS011;40747;49.480;8.658;2022-11-20T09:16:00;18.88;;;7.88;;
54853;SDS011;40747;49.480;8.658;2022-11-20T09:18:28;16.65;;;8.77;;
54853;SDS011;40747;49.480;8.658;2022-11-20T09:21:00;13.73;;;6.22;;
54853;SDS011;40747;49.480;8.658;2022-11-20T09:23:26;13.18;;;6.38;;
54853;SDS011;40747;49.480;8.658;2022-11-20T09:25:55;11.57;;;6.68;;
54853;SDS011;40747;49.480;8.658;2022-11-20T09:28:24;11.68;;;6.38;;
54853;SDS011;40747;49.480;8.658;2022-11-20T09:30:50;12.07;;;6.43;;
54853;SDS011;40747;49.480;8.658;2022-11-20T09:33:15;14.48;;;7.50;;
54853;SDS011;40747;49.480;8.658;2022-11-20T09:35:40;14.20;;;7.10;;
54853;SDS011;40747;49.480;8.658;2022-11-20T09:38:06;12.95;;;6.55;;
54853;SDS011;40747;49.480;8.658;2022-11-20T09:40:32;11.48;;;6.38;;
54853;SDS011;40747;49.480;8.658;2022-11-20T09:43:18;11.80;;;7.80;;
54853;SDS011;40747;49.480;8.658;2022-11-20T09:49:01;16.70;;;6.93;;
54853;SDS011;40747;49.480;8.658;2022-11-20T09:51:54;14.32;;;6.90;;
54853;SDS011;40747;49.480;8.658;2022-11-20T09:54:26;11.27;;;6.07;;
54853;SDS011;40747;49.480;8.658;2022-11-20T09:56:58;17.08;;;8.80;;
54853;SDS011;40747;49.480;8.658;2022-11-20T10:04:25;23.17;;;9.70;;
54853;SDS011;40747;49.480;8.658;2022-11-20T10:09:39;15.13;;;7.43;;
54853;SDS011;40747;49.480;8.658;2022-11-20T10:12:31;13.85;;;7.50;;
54853;SDS011;40747;49.480;8.658;2022-11-20T10:18:36;17.23;;;8.75;;
54853;SDS011;40747;49.480;8.658;2022-11-20T10:26:45;14.13;;;7.40;;
54853;SDS011;40747;49.480;8.658;2022-11-20T10:29:13;19.25;;;9.63;;
54853;SDS011;40747;49.480;8.658;2022-11-20T10:34:26;21.50;;;8.70;;
54853;SDS011;40747;49.480;8.658;2022-11-20T10:37:06;20.75;;;9.55;;
54853;SDS011;40747;49.480;8.658;2022-11-20T10:39:41;17.98;;;10.07;;
54853;SDS011;40747;49.480;8.658;2022-11-20T10:42:16;10.25;;;6.72;;
54853;SDS011;40747;49.480;8.658;2022-11-20T10:44:52;27.13;;;10.50;;
54853;SDS011;40747;49.480;8.658;2022-11-20T10:47:36;29.45;;;11.77;;
54853;SDS011;40747;49.480;8.658;2022-11-20T10:50:02;39.70;;;13.68;;
54853;SDS011;40747;49.480;8.658;2022-11-20T10:52:48;48.33;;;15.40;;
54853;SDS011;40747;49.480;8.658;2022-11-20T10:55:39;33.65;;;12.90;;
54853;SDS011;40747;49.480;8.658;2022-11-20T10:58:14;49.03;;;17.67;;
54853;SDS011;40747;49.480;8.658;2022-11-20T11:00:47;54.17;;;17.92;;
54853;SDS011;40747;49.480;8.658;2022-11-20T11:03:28;48.95;;;15.20;;
54853;SDS011;40747;49.480;8.658;2022-11-20T11:06:09;56.75;;;15.68;;
54853;SDS011;40747;49.480;8.658;2022-11-20T11:08:42;33.38;;;13.15;;
54853;SDS011;40747;49.480;8.658;2022-11-20T11:11:20;34.70;;;13.68;;
54853;SDS011;40747;49.480;8.658;2022-11-20T11:13:46;45.88;;;13.82;;
54853;SDS011;40747;49.480;8.658;2022-11-20T11:16:24;45.00;;;16.13;;
54853;SDS011;40747;49.480;8.658;2022-11-20T11:18:51;54.67;;;19.30;;
54853;SDS011;40747;49.480;8.658;2022-11-20T11:21:21;57.00;;;19.75;;
54853;SDS011;40747;49.480;8.658;2022-11-20T11:24:00;50.25;;;18.63;;
54853;SDS011;40747;49.480;8.658;2022-11-20T11:26:28;61.70;;;21.50;;
54853;SDS011;40747;49.480;8.658;2022-11-20T11:28:57;49.55;;;17.38;;
54853;SDS011;40747;49.480;8.658;2022-11-20T11:31:24;65.78;;;20.88;;
54853;SDS011;40747;49.480;8.658;2022-11-20T11:33:51;66.03;;;22.98;;
54853;SDS011;40747;49.480;8.658;2022-11-20T11:36:20;60.63;;;19.70;;
54853;SDS011;40747;49.480;8.658;2022-11-20T11:38:50;48.70;;;16.45;;
54853;SDS011;40747;49.480;8.658;2022-11-20T11:41:22;48.58;;;18.60;;
54853;SDS011;40747;49.480;8.658;2022-11-20T11:43:54;37.13;;;15.27;;
54853;SDS011;40747;49.480;8.658;2022-11-20T11:46:49;35.22;;;15.55;;
54853;SDS011;40747;49.480;8.658;2022-11-20T11:49:19;31.33;;;14.57;;
54853;SDS011;40747;49.480;8.658;2022-11-20T11:51:58;39.85;;;16.30;;
54853;SDS011;40747;49.480;8.658;2022-11-20T11:54:35;35.00;;;14.00;;
54853;SDS011;40747;49.480;8.658;2022-11-20T12:00:09;24.92;;;10.65;;
54853;SDS011;40747;49.480;8.658;2022-11-20T12:10:50;14.52;;;8.30;;
54853;SDS011;40747;49.480;8.658;2022-11-20T12:13:21;13.10;;;6.03;;
54853;SDS011;40747;49.480;8.658;2022-11-20T12:16:05;12.93;;;7.22;;
54853;SDS011;40747;49.480;8.658;2022-11-20T12:18:30;13.98;;;6.93;;
54853;SDS011;40747;49.480;8.658;2022-11-20T12:21:10;10.63;;;6.15;;
54853;SDS011;40747;49.480;8.658;2022-11-20T12:27:03;21.73;;;10.45;;
54853;SDS011;40747;49.480;8.658;2022-11-20T12:29:50;23.23;;;11.15;;
54853;SDS011;40747;49.480;8.658;2022-11-20T12:37:54;24.55;;;11.75;;
54853;SDS011;40747;49.480;8.658;2022-11-20T12:40:46;24.80;;;12.38;;
54853;SDS011;40747;49.480;8.658;2022-11-20T12:43:22;17.02;;;9.30;;
54853;SDS011;40747;49.480;8.658;2022-11-20T12:52:06;21.65;;;10.50;;
54853;SDS011;40747;49.480;8.658;2022-11-20T12:57:41;16.02;;;6.65;;
54853;SDS011;40747;49.480;8.658;2022-11-20T13:00:18;9.05;;;5.97;;
54853;SDS011;40747;49.480;8.658;2022-11-20T13:02:58;17.80;;;7.00;;
54853;SDS011;40747;49.480;8.658;2022-11-20T13:08:35;11.07;;;6.35;;
54853;SDS011;40747;49.480;8.658;2022-11-20T13:11:12;7.22;;;4.47;;
54853;SDS011;40747;49.480;8.658;2022-11-20T13:16:35;6.28;;;3.80;;
54853;SDS011;40747;49.480;8.658;2022-11-20T13:19:07;10.23;;;5.68;;
54853;SDS011;40747;49.480;8.658;2022-11-20T13:24:20;9.52;;;5.00;;
54853;SDS011;40747;49.480;8.658;2022-11-20T13:29:39;9.05;;;4.25;;
54853;SDS011;40747;49.480;8.658;2022-11-20T13:32:16;6.85;;;3.72;;
54853;SDS011;40747;49.480;8.658;2022-11-20T13:34:53;7.60;;;2.90;;
54853;SDS011;40747;49.480;8.658;2022-11-20T13:42:43;6.55;;;3.38;;
54853;SDS011;40747;49.480;8.658;2022-11-20T13:45:21;7.80;;;5.10;;
54853;SDS011;40747;49.480;8.658;2022-11-20T13:47:51;7.13;;;4.15;;
54853;SDS011;40747;49.480;8.658;2022-11-20T13:50:17;10.95;;;5.28;;
54853;SDS011;40747;49.480;8.658;2022-11-20T13:55:31;6.35;;;3.38;;
54853;SDS011;40747;49.480;8.658;2022-11-20T14:00:44;4.28;;;2.95;;
54853;SDS011;40747;49.480;8.658;2022-11-20T14:03:22;3.78;;;2.00;;
54853;SDS011;40747;49.480;8.658;2022-11-20T14:05:55;7.50;;;1.75;;
54853;SDS011;40747;49.480;8.658;2022-11-20T14:16:33;1.27;;;0.82;;
54853;SDS011;40747;49.480;8.658;2022-11-20T14:21:44;1.10;;;0.90;;
54853;SDS011;40747;49.480;8.658;2022-11-20T14:24:10;1.20;;;0.68;;
54853;SDS011;40747;49.480;8.658;2022-11-20T14:26:37;0.95;;;0.77;;
54853;SDS011;40747;49.480;8.658;2022-11-20T14:29:23;5.93;;;2.50;;
54853;SDS011;40747;49.480;8.658;2022-11-20T14:31:54;2.30;;;1.23;;
54853;SDS011;40747;49.480;8.658;2022-11-20T14:34:25;1.98;;;1.00;;
54853;SDS011;40747;49.480;8.658;2022-11-20T14:36:54;3.83;;;0.95;;
54853;SDS011;40747;49.480;8.658;2022-11-20T14:39:25;0.82;;;0.70;;
54853;SDS011;40747;49.480;8.658;2022-11-20T14:42:03;1.42;;;0.75;;
54853;SDS011;40747;49.480;8.658;2022-11-20T14:44:45;3.17;;;0.55;;
54853;SDS011;40747;49.480;8.658;2022-11-20T14:47:11;0.90;;;0.47;;
54853;SDS011;40747;49.480;8.658;2022-11-20T14:49:40;0.85;;;0.77;;
54853;SDS011;40747;49.480;8.658;2022-11-20T14:52:13;0.63;;;0.63;;
54853;SDS011;40747;49.480;8.658;2022-11-20T14:54:47;3.30;;;1.35;;
54853;SDS011;40747;49.480;8.658;2022-11-20T14:59:46;6.15;;;2.25;;
54853;SDS011;40747;49.480;8.658;2022-11-20T15:02:11;2.60;;;1.65;;
54853;SDS011;40747;49.480;8.658;2022-11-20T15:04:50;6.55;;;3.00;;
54853;SDS011;40747;49.480;8.658;2022-11-20T15:07:25;6.75;;;2.83;;
54853;SDS011;40747;49.480;8.658;2022-11-20T15:10:09;2.92;;;1.88;;
54853;SDS011;40747;49.480;8.658;2022-11-20T15:12:58;3.03;;;1.67;;
54853;SDS011;40747;49.480;8.658;2022-11-20T15:18:04;3.70;;;1.90;;
54853;SDS011;40747;49.480;8.658;2022-11-20T15:20:30;4.35;;;1.77;;
54853;SDS011;40747;49.480;8.658;2022-11-20T15:22:57;4.68;;;1.58;;
54853;SDS011;40747;49.480;8.658;2022-11-20T15:25:23;8.63;;;1.80;;
54853;SDS011;40747;49.480;8.658;2022-11-20T15:27:50;2.90;;;1.70;;
54853;SDS011;40747;49.480;8.658;2022-11-20T15:30:19;2.70;;;1.25;;
54853;SDS011;40747;49.480;8.658;2022-11-20T15:32:46;3.17;;;1.80;;
54853;SDS011;40747;49.480;8.658;2022-11-20T15:35:12;5.88;;;2.45;;
54853;SDS011;40747;49.480;8.658;2022-11-20T15:37:38;1.75;;;1.40;;
54853;SDS011;40747;49.480;8.658;2022-11-20T15:40:04;13.80;;;6.35;;
54853;SDS011;40747;49.480;8.658;2022-11-20T15:42:30;8.18;;;4.30;;
54853;SDS011;40747;49.480;8.658;2022-11-20T15:44:56;6.57;;;3.63;;
54853;SDS011;40747;49.480;8.658;2022-11-20T15:47:24;4.68;;;2.65;;
54853;SDS011;40747;49.480;8.658;2022-11-20T15:49:52;5.05;;;2.33;;
54853;SDS011;40747;49.480;8.658;2022-11-20T15:52:17;5.80;;;3.38;;
54853;SDS011;40747;49.480;8.658;2022-11-20T15:54:43;6.50;;;3.70;;
54853;SDS011;40747;49.480;8.658;2022-11-20T15:57:08;7.80;;;3.72;;
54853;SDS011;40747;49.480;8.658;2022-11-20T15:59:34;6.57;;;3.63;;
54853;SDS011;40747;49.480;8.658;2022-11-20T16:02:01;8.48;;;3.42;;
54853;SDS011;40747;49.480;8.658;2022-11-20T16:04:27;4.50;;;3.67;;
54853;SDS011;40747;49.480;8.658;2022-11-20T16:06:53;7.05;;;5.57;;
54853;SDS011;40747;49.480;8.658;2022-11-20T16:09:18;5.97;;;3.58;;
54853;SDS011;40747;49.480;8.658;2022-11-20T16:11:43;4.00;;;3.40;;
54853;SDS011;40747;49.480;8.658;2022-11-20T16:14:09;3.38;;;2.60;;
54853;SDS011;40747;49.480;8.658;2022-11-20T16:16:55;5.47;;;3.25;;
54853;SDS011;40747;49.480;8.658;2022-11-20T16:19:20;3.72;;;2.65;;
54853;SDS011;40747;49.480;8.658;2022-11-20T16:21:46;2.55;;;2.00;;
54853;SDS011;40747;49.480;8.658;2022-11-20T16:24:12;2.22;;;1.65;;
54853;SDS011;40747;49.480;8.658;2022-11-20T16:26:39;1.50;;;1.40;;
54853;SDS011;40747;49.480;8.658;2022-11-20T16:29:05;22.98;;;3.88;;
54853;SDS011;40747;49.480;8.658;2022-11-20T16:31:31;3.78;;;2.63;;
54853;SDS011;40747;49.480;8.658;2022-11-20T16:33:59;2.25;;;1.95;;
54853;SDS011;40747;49.480;8.658;2022-11-20T16:36:26;2.40;;;1.27;;
54853;SDS011;40747;49.480;8.658;2022-11-20T16:38:54;3.15;;;2.00;;
54853;SDS011;40747;49.480;8.658;2022-11-20T16:41:20;2.60;;;1.67;;